createdAt,value
2019-05-19T00:00:48.239Z,12.77
2019-05-19T00:01:48.233Z,12.67
2019-05-19T00:02:48.327Z,12.70
2019-05-19T00:03:48.205Z,12.67
2019-05-19T00:04:48.206Z,12.62
2019-05-19T00:05:48.177Z,12.67
2019-05-19T00:06:48.169Z,12.61
2019-05-19T00:07:48.194Z,12.59
2019-05-19T00:08:48.151Z,12.56
2019-05-19T00:09:48.140Z,12.63
2019-05-19T00:10:48.129Z,12.54
2019-05-19T00:11:48.119Z,12.58
2019-05-19T00:12:48.111Z,12.48
2019-05-19T00:13:48.108Z,12.67
2019-05-19T00:14:48.079Z,12.54
2019-05-19T00:15:48.072Z,12.54
2019-05-19T00:16:48.072Z,12.54
2019-05-19T00:17:48.076Z,12.52
2019-05-19T00:18:48.039Z,12.41
2019-05-19T00:19:48.030Z,12.40
2019-05-19T00:20:48.012Z,12.48
2019-05-19T00:21:47.999Z,12.49
2019-05-19T00:22:47.988Z,12.48
2019-05-19T00:23:47.999Z,12.44
2019-05-19T00:24:48.001Z,12.46
2019-05-19T00:25:47.957Z,12.48
2019-05-19T00:26:47.946Z,12.37
2019-05-19T00:27:47.939Z,12.34
2019-05-19T00:28:47.934Z,12.36
2019-05-19T00:29:47.918Z,12.34
2019-05-19T00:30:47.911Z,12.33
2019-05-19T00:31:47.892Z,12.33
2019-05-19T00:32:47.878Z,12.34
2019-05-19T00:33:47.866Z,12.19
2019-05-19T00:34:47.880Z,12.30
2019-05-19T00:35:47.845Z,12.25
2019-05-19T00:36:47.836Z,12.31
2019-05-19T00:37:47.824Z,12.23
2019-05-19T00:38:47.825Z,12.26
2019-05-19T00:39:47.798Z,12.11
2019-05-19T00:40:47.812Z,12.11
2019-05-19T00:41:47.777Z,12.13
2019-05-19T00:42:47.763Z,12.13
2019-05-19T00:43:47.771Z,12.13
2019-05-19T00:44:47.759Z,12.08
2019-05-19T00:45:47.736Z,12.05
2019-05-19T00:46:47.723Z,12.12
2019-05-19T00:47:47.706Z,12.08
2019-05-19T00:48:47.697Z,12.05
2019-05-19T00:49:47.702Z,11.98
2019-05-19T00:50:47.681Z,11.98
2019-05-19T00:51:47.665Z,11.94
2019-05-19T00:52:47.665Z,11.93
2019-05-19T00:53:47.642Z,11.93
2019-05-19T00:54:47.668Z,11.94
2019-05-19T00:55:47.652Z,11.93
2019-05-19T00:56:47.614Z,11.84
2019-05-19T00:57:47.596Z,11.85
2019-05-19T00:58:47.668Z,11.85
2019-05-19T00:59:47.573Z,11.87
2019-05-19T01:00:47.561Z,11.84
2019-05-19T01:01:47.566Z,11.81
2019-05-19T01:02:47.542Z,11.85
2019-05-19T01:03:47.529Z,11.81
2019-05-19T01:04:47.514Z,11.85
2019-05-19T01:05:47.517Z,11.74
2019-05-19T01:06:47.502Z,11.70
2019-05-19T01:07:47.480Z,11.79
2019-05-19T01:08:47.471Z,11.74
2019-05-19T01:09:47.459Z,11.81
2019-05-19T01:10:47.458Z,11.74
2019-05-19T01:11:47.445Z,11.75
2019-05-19T01:12:47.424Z,11.67
2019-05-19T01:13:47.416Z,11.63
2019-05-19T01:14:47.403Z,11.67
2019-05-19T01:15:47.441Z,11.69
2019-05-19T01:16:47.380Z,11.62
2019-05-19T01:17:47.367Z,11.57
2019-05-19T01:18:47.355Z,11.60
2019-05-19T01:19:55.633Z,11.54
2019-05-19T01:20:48.349Z,11.62
2019-05-19T01:21:47.330Z,11.59
2019-05-19T01:22:47.315Z,11.62
2019-05-19T01:23:47.298Z,11.62
2019-05-19T01:24:47.296Z,11.56
2019-05-19T01:25:47.297Z,11.57
2019-05-19T01:26:47.266Z,11.56
2019-05-19T01:27:47.264Z,11.48
2019-05-19T01:28:47.249Z,11.51
2019-05-19T01:29:47.234Z,11.53
2019-05-19T01:30:47.223Z,11.49
2019-05-19T01:31:47.216Z,11.45
2019-05-19T01:32:47.283Z,11.48
2019-05-19T01:33:47.188Z,11.51
2019-05-19T01:34:47.176Z,11.53
2019-05-19T01:35:47.166Z,11.48
2019-05-19T01:36:47.158Z,11.51
2019-05-19T01:37:47.140Z,11.44
2019-05-19T01:38:47.152Z,11.45
2019-05-19T01:39:47.137Z,11.39
2019-05-19T01:40:47.105Z,11.44
2019-05-19T01:41:47.093Z,11.41
2019-05-19T01:42:47.084Z,11.38
2019-05-19T01:43:47.072Z,11.38
2019-05-19T01:44:47.073Z,11.38
2019-05-19T01:45:47.046Z,11.46
2019-05-19T01:46:47.044Z,11.30
2019-05-19T01:47:47.024Z,11.33
2019-05-19T01:48:47.017Z,11.28
2019-05-19T01:49:47.009Z,11.28
2019-05-19T01:50:47.012Z,11.27
2019-05-19T01:51:46.982Z,11.27
2019-05-19T01:52:46.976Z,11.33
2019-05-19T01:53:46.971Z,11.20
2019-05-19T01:54:46.945Z,11.24
2019-05-19T01:55:46.943Z,11.20
2019-05-19T01:56:46.925Z,11.27
2019-05-19T01:57:46.914Z,11.19
2019-05-19T01:58:46.924Z,11.23
2019-05-19T01:59:46.895Z,11.16
2019-05-19T02:00:46.880Z,11.19
2019-05-19T02:01:46.870Z,11.16
2019-05-19T02:02:46.854Z,11.16
2019-05-19T02:03:46.871Z,11.16
2019-05-19T02:04:46.834Z,11.17
2019-05-19T02:05:46.821Z,11.21
2019-05-19T02:06:46.809Z,11.17
2019-05-19T02:07:46.805Z,11.17
2019-05-19T02:08:46.809Z,11.06
2019-05-19T02:09:46.792Z,11.09
2019-05-19T02:10:46.764Z,11.05
2019-05-19T02:11:46.758Z,10.95
2019-05-19T02:12:46.740Z,11.06
2019-05-19T02:13:46.731Z,11.03
2019-05-19T02:14:46.743Z,10.95
2019-05-19T02:15:46.710Z,11.01
2019-05-19T02:16:46.696Z,11.01
2019-05-19T02:17:46.687Z,10.95
2019-05-19T02:18:46.682Z,10.91
2019-05-19T02:19:46.683Z,11.01
2019-05-19T02:20:46.669Z,10.93
2019-05-19T02:21:46.641Z,10.98
2019-05-19T02:22:46.632Z,10.91
2019-05-19T02:23:46.621Z,11.01
2019-05-19T02:24:46.629Z,10.91
2019-05-19T02:25:46.618Z,10.94
2019-05-19T02:26:46.586Z,10.87
2019-05-19T02:27:46.579Z,10.76
2019-05-19T02:28:46.575Z,10.93
2019-05-19T02:29:46.568Z,10.76
2019-05-19T02:30:46.548Z,10.86
2019-05-19T02:31:46.532Z,10.80
2019-05-19T02:32:46.537Z,10.83
2019-05-19T02:33:46.517Z,10.83
2019-05-19T02:34:46.521Z,10.91
2019-05-19T02:35:46.502Z,10.84
2019-05-19T02:36:46.480Z,10.84
2019-05-19T02:37:46.468Z,10.81
2019-05-19T02:38:46.477Z,10.70
2019-05-19T02:39:46.473Z,10.73
2019-05-19T02:40:46.441Z,10.68
2019-05-19T02:41:46.423Z,10.70
2019-05-19T02:42:46.420Z,10.72
2019-05-19T02:43:46.406Z,10.66
2019-05-19T02:44:46.391Z,10.68
2019-05-19T02:45:46.396Z,10.70
2019-05-19T02:46:46.403Z,10.75
2019-05-19T02:47:46.371Z,10.57
2019-05-19T02:48:46.347Z,10.63
2019-05-19T02:49:46.351Z,10.68
2019-05-19T02:50:52.318Z,10.69
2019-05-19T02:51:47.325Z,10.60
2019-05-19T02:52:46.306Z,10.62
2019-05-19T02:53:46.299Z,10.58
2019-05-19T02:54:46.292Z,10.62
2019-05-19T02:55:46.310Z,10.55
2019-05-19T02:56:46.262Z,10.54
2019-05-19T02:57:46.249Z,10.51
2019-05-19T02:58:46.242Z,10.58
2019-05-19T02:59:46.231Z,10.55
2019-05-19T03:00:46.222Z,10.46
2019-05-19T03:01:46.254Z,10.54
2019-05-19T03:02:46.196Z,10.44
2019-05-19T03:03:46.189Z,10.52
2019-05-19T03:04:46.175Z,10.54
2019-05-19T03:05:46.165Z,10.52
2019-05-19T03:06:46.156Z,10.51
2019-05-19T03:07:46.156Z,10.47
2019-05-19T03:08:46.131Z,10.47
2019-05-19T03:09:46.121Z,10.47
2019-05-19T03:10:46.108Z,10.39
2019-05-19T03:11:46.130Z,10.43
2019-05-19T03:12:46.133Z,10.39
2019-05-19T03:13:46.076Z,10.39
2019-05-19T03:14:46.072Z,10.42
2019-05-19T03:15:46.056Z,10.34
2019-05-19T03:16:46.080Z,10.36
2019-05-19T03:17:46.032Z,10.34
2019-05-19T03:18:46.023Z,10.36
2019-05-19T03:19:46.009Z,10.35
2019-05-19T03:20:46.004Z,10.39
2019-05-19T03:21:45.992Z,10.29
2019-05-19T03:22:46.011Z,10.28
2019-05-19T03:23:45.966Z,10.28
2019-05-19T03:24:45.955Z,10.35
2019-05-19T03:25:45.954Z,10.28
2019-05-19T03:26:45.935Z,10.25
2019-05-19T03:27:45.923Z,10.22
2019-05-19T03:28:45.923Z,10.29
2019-05-19T03:29:45.902Z,10.34
2019-05-19T03:30:45.897Z,10.20
2019-05-19T03:31:45.882Z,10.25
2019-05-19T03:32:45.890Z,10.24
2019-05-19T03:33:45.891Z,10.13
2019-05-19T03:34:45.848Z,10.24
2019-05-19T03:35:45.832Z,10.16
2019-05-19T03:36:45.829Z,10.11
2019-05-19T03:37:45.825Z,10.11
2019-05-19T03:38:45.842Z,10.18
2019-05-19T03:39:45.788Z,10.18
2019-05-19T03:40:45.781Z,10.09
2019-05-19T03:41:45.770Z,10.16
2019-05-19T03:42:45.758Z,10.18
2019-05-19T03:43:45.750Z,10.13
2019-05-19T03:44:45.758Z,10.07
2019-05-19T03:45:45.724Z,10.11
2019-05-19T03:46:45.711Z,10.14
2019-05-19T03:47:45.725Z,10.14
2019-05-19T03:48:45.694Z,10.04
2019-05-19T03:49:45.678Z,10.06
2019-05-19T03:50:45.682Z,10.11
2019-05-19T03:51:45.662Z,9.99
2019-05-19T03:52:45.661Z,10.09
2019-05-19T03:53:45.655Z,10.02
2019-05-19T03:54:45.624Z,10.09
2019-05-19T03:55:45.610Z,10.04
2019-05-19T03:56:45.599Z,10.04
2019-05-19T03:57:45.590Z,10.07
2019-05-19T03:58:45.595Z,10.02
2019-05-19T03:59:45.565Z,9.99
2019-05-19T04:00:45.560Z,10.06
2019-05-19T04:01:45.545Z,10.01
2019-05-19T04:02:45.534Z,10.02
2019-05-19T04:03:45.544Z,9.99
2019-05-19T04:04:45.510Z,9.96
2019-05-19T04:05:45.508Z,9.96
2019-05-19T04:06:45.498Z,9.96
2019-05-19T04:07:45.483Z,10.02
2019-05-19T04:08:45.469Z,10.07
2019-05-19T04:09:45.469Z,9.99
2019-05-19T04:10:45.465Z,10.01
2019-05-19T04:11:45.436Z,9.98
2019-05-19T04:12:45.422Z,10.02
2019-05-19T04:13:45.417Z,9.99
2019-05-19T04:14:45.426Z,10.09
2019-05-19T04:15:45.414Z,10.07
2019-05-19T04:16:45.385Z,10.01
2019-05-19T04:17:45.373Z,10.07
2019-05-19T04:18:45.361Z,10.09
2019-05-19T04:19:45.358Z,10.10
2019-05-19T04:20:45.352Z,10.11
2019-05-19T04:21:49.088Z,10.10
2019-05-19T04:22:45.314Z,10.17
2019-05-19T04:23:45.308Z,10.13
2019-05-19T04:24:45.306Z,10.11
2019-05-19T04:25:45.299Z,10.16
2019-05-19T04:26:45.273Z,10.16
2019-05-19T04:27:45.258Z,10.26
2019-05-19T04:28:45.250Z,10.25
2019-05-19T04:29:45.235Z,10.28
2019-05-19T04:30:45.241Z,10.29
2019-05-19T04:31:45.237Z,10.29
2019-05-19T04:32:45.200Z,10.25
2019-05-19T04:33:45.193Z,10.26
2019-05-19T04:34:45.178Z,10.28
2019-05-19T04:35:45.188Z,10.31
2019-05-19T04:36:45.226Z,10.32
2019-05-19T04:37:45.147Z,10.28
2019-05-19T04:38:45.136Z,10.35
2019-05-19T04:39:45.135Z,10.36
2019-05-19T04:40:45.116Z,10.38
2019-05-19T04:41:45.115Z,10.38
2019-05-19T04:42:45.086Z,10.38
2019-05-19T04:43:45.080Z,10.42
2019-05-19T04:44:45.066Z,10.35
2019-05-19T04:45:45.067Z,10.36
2019-05-19T04:46:45.044Z,10.43
2019-05-19T04:47:45.032Z,10.36
2019-05-19T04:48:45.022Z,10.36
2019-05-19T04:49:45.022Z,10.47
2019-05-19T04:50:45.037Z,10.39
2019-05-19T04:51:45.001Z,10.55
2019-05-19T04:52:44.996Z,10.44
2019-05-19T04:53:44.986Z,10.49
2019-05-19T04:54:45.009Z,10.47
2019-05-19T04:55:44.976Z,10.51
2019-05-19T04:56:44.972Z,10.52
2019-05-19T04:57:44.966Z,10.63
2019-05-19T04:58:44.939Z,10.58
2019-05-19T04:59:44.897Z,10.58
2019-05-19T05:00:44.911Z,10.68
2019-05-19T05:01:44.906Z,10.62
2019-05-19T05:02:44.898Z,10.69
2019-05-19T05:03:44.855Z,10.66
2019-05-19T05:04:44.859Z,10.70
2019-05-19T05:05:44.837Z,10.76
2019-05-19T05:06:44.833Z,10.80
2019-05-19T05:07:44.826Z,10.80
2019-05-19T05:08:44.802Z,10.87
2019-05-19T05:09:44.788Z,10.93
2019-05-19T05:10:44.781Z,10.86
2019-05-19T05:11:44.766Z,10.81
2019-05-19T05:12:44.776Z,10.94
2019-05-19T05:13:44.743Z,10.98
2019-05-19T05:14:44.732Z,10.99
2019-05-19T05:15:44.740Z,11.03
2019-05-19T05:16:44.707Z,11.13
2019-05-19T05:17:44.730Z,11.19
2019-05-19T05:18:47.603Z,11.24
2019-05-19T05:19:44.681Z,11.28
2019-05-19T05:20:44.699Z,11.23
2019-05-19T05:21:44.652Z,11.38
2019-05-19T05:22:44.654Z,11.41
2019-05-19T05:23:44.656Z,11.38
2019-05-19T05:24:44.621Z,11.48
2019-05-19T05:25:44.662Z,11.53
2019-05-19T05:26:44.598Z,11.53
2019-05-19T05:27:44.585Z,11.67
2019-05-19T05:28:44.614Z,11.66
2019-05-19T05:29:44.589Z,11.77
2019-05-19T05:30:44.554Z,11.72
2019-05-19T05:31:44.549Z,11.84
2019-05-19T05:32:44.537Z,11.85
2019-05-19T05:33:44.549Z,11.93
2019-05-19T05:34:44.677Z,11.98
2019-05-19T05:35:44.517Z,12.13
2019-05-19T05:36:44.555Z,12.08
2019-05-19T05:37:44.474Z,12.22
2019-05-19T05:38:44.469Z,12.23
2019-05-19T05:39:44.473Z,12.34
2019-05-19T05:40:44.443Z,12.37
2019-05-19T05:41:44.439Z,12.46
2019-05-19T05:42:44.424Z,12.54
2019-05-19T05:43:44.422Z,12.52
2019-05-19T05:44:44.407Z,12.61
2019-05-19T05:45:44.406Z,12.62
2019-05-19T05:46:44.371Z,12.77
2019-05-19T05:47:44.365Z,12.81
2019-05-19T05:48:47.033Z,12.81
2019-05-19T05:49:44.360Z,12.87
2019-05-19T05:50:44.341Z,12.91
2019-05-19T05:51:44.323Z,12.88
2019-05-19T05:52:44.305Z,12.98
2019-05-19T05:53:44.293Z,13.04
2019-05-19T05:54:44.308Z,12.99
2019-05-19T05:55:44.276Z,13.16
2019-05-19T05:56:44.257Z,13.16
2019-05-19T05:57:44.251Z,13.24
2019-05-19T05:58:44.237Z,13.24
2019-05-19T05:59:44.223Z,13.35
2019-05-19T06:00:44.225Z,13.41
2019-05-19T06:01:44.202Z,13.35
2019-05-19T06:02:44.197Z,13.44
2019-05-19T06:03:44.182Z,13.47
2019-05-19T06:04:44.187Z,13.44
2019-05-19T06:05:44.207Z,13.47
2019-05-19T06:06:45.905Z,13.51
2019-05-19T06:07:44.169Z,13.54
2019-05-19T06:08:44.129Z,13.61
2019-05-19T06:09:44.117Z,13.57
2019-05-19T06:10:44.250Z,13.66
2019-05-19T06:11:44.091Z,13.66
2019-05-19T06:12:44.082Z,13.71
2019-05-19T06:13:44.086Z,13.80
2019-05-19T06:14:44.057Z,13.84
2019-05-19T06:15:44.079Z,13.88
2019-05-19T06:16:44.041Z,13.83
2019-05-19T06:17:44.025Z,14.02
2019-05-19T06:18:44.019Z,13.90
2019-05-19T06:19:44.009Z,14.04
2019-05-19T06:20:43.993Z,14.06
2019-05-19T06:21:43.996Z,14.09
2019-05-19T06:22:55.993Z,14.23
2019-05-19T06:23:44.991Z,14.12
2019-05-19T06:24:43.959Z,14.19
2019-05-19T06:25:43.952Z,14.24
2019-05-19T06:26:43.933Z,14.34
2019-05-19T06:27:43.921Z,14.34
2019-05-19T06:28:43.908Z,14.38
2019-05-19T06:29:43.902Z,14.46
2019-05-19T06:30:43.931Z,14.41
2019-05-19T06:31:43.886Z,14.48
2019-05-19T06:32:43.873Z,14.44
2019-05-19T06:33:43.848Z,14.52
2019-05-19T06:34:43.839Z,14.46
2019-05-19T06:35:43.861Z,14.52
2019-05-19T06:36:43.839Z,14.64
2019-05-19T06:37:43.809Z,14.59
2019-05-19T06:38:43.816Z,14.56
2019-05-19T06:39:43.784Z,14.63
2019-05-19T06:40:43.771Z,14.71
2019-05-19T06:41:43.781Z,14.69
2019-05-19T06:42:43.830Z,14.71
2019-05-19T06:43:43.741Z,14.82
2019-05-19T06:44:43.737Z,14.74
2019-05-19T06:45:43.719Z,14.78
2019-05-19T06:46:43.729Z,14.90
2019-05-19T06:47:43.695Z,14.90
2019-05-19T06:48:43.682Z,14.93
2019-05-19T06:49:43.677Z,15.03
2019-05-19T06:50:43.660Z,15.04
2019-05-19T06:51:43.668Z,15.13
2019-05-19T06:52:43.636Z,15.15
2019-05-19T06:53:43.631Z,15.23
2019-05-19T06:54:43.621Z,15.31
2019-05-19T06:55:43.614Z,15.35
2019-05-19T06:56:43.613Z,15.33
2019-05-19T06:57:43.598Z,15.41
2019-05-19T06:58:43.573Z,15.49
2019-05-19T06:59:43.572Z,15.60
2019-05-19T07:00:43.552Z,15.68
2019-05-19T07:01:43.539Z,15.77
2019-05-19T07:02:43.533Z,15.77
2019-05-19T07:03:43.525Z,15.81
2019-05-19T07:04:43.502Z,15.78
2019-05-19T07:05:43.714Z,15.93
2019-05-19T07:06:43.537Z,15.91
2019-05-19T07:07:43.483Z,16.07
2019-05-19T07:08:43.470Z,16.04
2019-05-19T07:09:57.522Z,16.23
2019-05-19T07:10:44.439Z,16.14
2019-05-19T07:11:43.447Z,16.18
2019-05-19T07:12:43.431Z,16.26
2019-05-19T07:13:43.418Z,16.25
2019-05-19T07:14:43.395Z,16.33
2019-05-19T07:15:43.407Z,16.34
2019-05-19T07:16:43.376Z,16.40
2019-05-19T07:17:43.385Z,16.36
2019-05-19T07:18:43.363Z,16.50
2019-05-19T07:19:43.341Z,16.52
2019-05-19T07:20:43.346Z,16.57
2019-05-19T07:21:43.324Z,16.54
2019-05-19T07:22:43.344Z,16.66
2019-05-19T07:23:43.313Z,16.66
2019-05-19T07:24:43.292Z,16.81
2019-05-19T07:25:43.275Z,16.81
2019-05-19T07:26:43.266Z,16.84
2019-05-19T07:27:43.251Z,16.80
2019-05-19T07:28:43.275Z,16.90
2019-05-19T07:29:43.235Z,16.95
2019-05-19T07:30:43.222Z,17.06
2019-05-19T07:31:43.206Z,17.03
2019-05-19T07:32:43.196Z,17.15
2019-05-19T07:33:43.185Z,17.20
2019-05-19T07:34:43.200Z,17.35
2019-05-19T07:35:43.167Z,17.40
2019-05-19T07:36:43.158Z,17.57
2019-05-19T07:37:43.171Z,17.66
2019-05-19T07:38:43.133Z,17.74
2019-05-19T07:39:43.136Z,17.83
2019-05-19T07:40:43.115Z,17.99
2019-05-19T07:41:43.099Z,18.23
2019-05-19T07:42:43.091Z,18.41
2019-05-19T07:43:43.080Z,18.56
2019-05-19T07:44:45.314Z,18.89
2019-05-19T07:45:43.086Z,19.16
2019-05-19T07:46:43.045Z,19.27
2019-05-19T07:47:43.036Z,19.57
2019-05-19T07:48:43.026Z,19.82
2019-05-19T07:49:43.022Z,19.94
2019-05-19T07:50:43.005Z,19.90
2019-05-19T07:51:43.019Z,19.95
2019-05-19T07:52:42.997Z,20.04
2019-05-19T07:53:43.480Z,20.23
2019-05-19T07:54:42.960Z,20.34
2019-05-19T07:55:42.975Z,20.51
2019-05-19T07:56:42.955Z,20.48
2019-05-19T07:57:42.934Z,20.58
2019-05-19T07:58:42.921Z,20.63
2019-05-19T07:59:42.914Z,20.90
2019-05-19T08:00:42.962Z,20.85
2019-05-19T08:01:42.911Z,20.98
2019-05-19T08:02:42.879Z,20.98
2019-05-19T08:03:42.867Z,21.01
2019-05-19T08:04:42.862Z,21.08
2019-05-19T08:05:42.863Z,21.15
2019-05-19T08:06:42.844Z,21.27
2019-05-19T08:07:42.837Z,21.37
2019-05-19T08:08:42.823Z,21.42
2019-05-19T08:09:42.806Z,21.51
2019-05-19T08:10:42.810Z,21.48
2019-05-19T08:11:42.806Z,21.55
2019-05-19T08:12:42.778Z,21.68
2019-05-19T08:13:42.765Z,21.77
2019-05-19T08:14:42.782Z,21.90
2019-05-19T08:15:42.744Z,21.82
2019-05-19T08:16:42.738Z,21.75
2019-05-19T08:17:42.746Z,22.01
2019-05-19T08:18:42.717Z,22.15
2019-05-19T08:19:42.708Z,22.30
2019-05-19T08:20:42.709Z,22.45
2019-05-19T08:21:42.687Z,22.61
2019-05-19T08:22:42.675Z,22.74
2019-05-19T08:23:58.564Z,22.75
2019-05-19T08:24:43.655Z,22.76
2019-05-19T08:25:42.647Z,22.81
2019-05-19T08:26:42.687Z,22.75
2019-05-19T08:27:42.628Z,22.84
2019-05-19T08:28:42.626Z,22.91
2019-05-19T08:29:42.605Z,23.15
2019-05-19T08:30:42.594Z,23.47
2019-05-19T08:31:42.588Z,23.72
2019-05-19T08:32:42.627Z,23.82
2019-05-19T08:33:42.585Z,24.06
2019-05-19T08:34:42.549Z,24.19
2019-05-19T08:35:42.543Z,24.41
2019-05-19T08:36:42.554Z,24.68
2019-05-19T08:37:42.531Z,24.94
2019-05-19T08:38:42.521Z,25.27
2019-05-19T08:39:42.504Z,25.45
2019-05-19T08:40:42.493Z,25.44
2019-05-19T08:41:42.482Z,25.36
2019-05-19T08:42:42.508Z,25.36
2019-05-19T08:43:42.465Z,25.49
2019-05-19T08:44:42.452Z,25.54
2019-05-19T08:45:42.448Z,25.76
2019-05-19T08:46:42.429Z,25.79
2019-05-19T08:47:42.427Z,25.71
2019-05-19T08:48:42.421Z,25.76
2019-05-19T08:49:42.401Z,25.60
2019-05-19T08:50:42.386Z,25.41
2019-05-19T08:51:42.418Z,25.29
2019-05-19T08:52:42.373Z,25.08
2019-05-19T08:53:42.382Z,25.07
2019-05-19T08:54:42.346Z,25.16
2019-05-19T08:55:42.337Z,25.08
2019-05-19T08:56:42.336Z,25.27
2019-05-19T08:57:42.329Z,25.44
2019-05-19T08:58:42.320Z,25.51
2019-05-19T08:59:42.293Z,25.51
2019-05-19T09:00:42.292Z,25.42
2019-05-19T09:01:42.279Z,25.36
2019-05-19T09:02:42.267Z,25.19
2019-05-19T09:03:42.273Z,25.02
2019-05-19T09:04:42.264Z,25.01
2019-05-19T09:05:42.249Z,24.87
2019-05-19T09:06:42.231Z,24.82
2019-05-19T09:07:42.230Z,24.68
2019-05-19T09:08:42.203Z,24.68
2019-05-19T09:09:42.209Z,24.64
2019-05-19T09:10:42.188Z,24.68
2019-05-19T09:11:42.170Z,24.80
2019-05-19T09:12:42.168Z,24.64
2019-05-19T09:13:42.160Z,24.70
2019-05-19T09:14:42.162Z,24.70
2019-05-19T09:15:42.135Z,24.66
2019-05-19T09:16:42.132Z,24.64
2019-05-19T09:17:42.114Z,24.75
2019-05-19T09:18:42.120Z,24.68
2019-05-19T09:19:42.111Z,24.82
2019-05-19T09:20:42.107Z,25.02
2019-05-19T09:21:42.111Z,25.08
2019-05-19T09:22:42.064Z,25.29
2019-05-19T09:23:42.055Z,25.45
2019-05-19T09:24:42.047Z,25.54
2019-05-19T09:25:42.070Z,25.61
2019-05-19T09:26:42.025Z,25.63
2019-05-19T09:27:42.024Z,25.78
2019-05-19T09:28:42.010Z,25.61
2019-05-19T09:29:42.005Z,25.51
2019-05-19T09:30:41.996Z,25.56
2019-05-19T09:31:41.988Z,25.39
2019-05-19T09:32:41.974Z,25.41
2019-05-19T09:33:41.960Z,25.42
2019-05-19T09:34:41.946Z,25.53
2019-05-19T09:35:41.951Z,25.61
2019-05-19T09:36:41.930Z,25.66
2019-05-19T09:37:41.927Z,25.66
2019-05-19T09:38:41.911Z,25.67
2019-05-19T09:39:41.898Z,25.69
2019-05-19T09:40:41.900Z,25.64
2019-05-19T09:41:41.879Z,25.71
2019-05-19T09:42:41.883Z,25.57
2019-05-19T09:43:41.866Z,25.60
2019-05-19T09:44:41.849Z,25.72
2019-05-19T09:45:41.856Z,25.82
2019-05-19T09:46:41.844Z,25.93
2019-05-19T09:47:41.828Z,26.04
2019-05-19T09:48:41.819Z,26.19
2019-05-19T09:49:41.804Z,26.38
2019-05-19T09:50:41.800Z,26.69
2019-05-19T09:51:41.796Z,26.78
2019-05-19T09:52:41.783Z,26.83
2019-05-19T09:53:41.771Z,26.65
2019-05-19T09:54:45.317Z,26.75
2019-05-19T09:55:41.748Z,26.87
2019-05-19T09:56:41.751Z,26.90
2019-05-19T09:57:41.732Z,27.11
2019-05-19T09:58:41.767Z,27.16
2019-05-19T09:59:41.716Z,27.18
2019-05-19T10:00:41.716Z,27.27
2019-05-19T10:01:41.712Z,27.39
2019-05-19T10:02:41.703Z,27.43
2019-05-19T10:03:41.679Z,27.61
2019-05-19T10:04:41.668Z,27.71
2019-05-19T10:05:41.659Z,27.72
2019-05-19T10:06:41.754Z,27.77
2019-05-19T10:07:41.681Z,27.96
2019-05-19T10:08:41.677Z,28.05
2019-05-19T10:09:41.640Z,28.27
2019-05-19T10:10:41.628Z,28.36
2019-05-19T10:11:41.618Z,28.52
2019-05-19T10:12:41.666Z,28.57
2019-05-19T10:13:41.620Z,28.89
2019-05-19T10:14:41.587Z,29.23
2019-05-19T10:15:41.610Z,29.29
2019-05-19T10:16:41.571Z,29.57
2019-05-19T10:17:41.569Z,29.54
2019-05-19T10:18:41.549Z,29.36
2019-05-19T10:19:41.541Z,29.26
2019-05-19T10:20:41.534Z,29.17
2019-05-19T10:21:41.527Z,29.11
2019-05-19T10:22:41.530Z,29.11
2019-05-19T10:23:41.507Z,29.03
2019-05-19T10:24:56.339Z,28.92
2019-05-19T10:25:42.496Z,28.61
2019-05-19T10:26:41.482Z,28.60
2019-05-19T10:27:41.489Z,28.60
2019-05-19T10:28:41.467Z,28.55
2019-05-19T10:29:41.456Z,28.45
2019-05-19T10:30:41.458Z,28.52
2019-05-19T10:31:41.438Z,28.36
2019-05-19T10:32:41.466Z,28.55
2019-05-19T10:33:41.429Z,28.25
2019-05-19T10:34:41.406Z,28.55
2019-05-19T10:35:41.399Z,28.82
2019-05-19T10:36:41.397Z,29.02
2019-05-19T10:37:41.382Z,29.17
2019-05-19T10:38:41.381Z,29.03
2019-05-19T10:39:41.358Z,29.21
2019-05-19T10:40:41.436Z,29.30
2019-05-19T10:41:41.345Z,29.42
2019-05-19T10:42:41.346Z,29.41
2019-05-19T10:43:41.335Z,29.45
2019-05-19T10:44:41.315Z,29.47
2019-05-19T10:45:41.308Z,29.55
2019-05-19T10:46:41.297Z,29.70
2019-05-19T10:47:41.280Z,29.55
2019-05-19T10:48:41.293Z,29.67
2019-05-19T10:49:43.127Z,29.74
2019-05-19T10:50:41.257Z,29.84
2019-05-19T10:51:41.243Z,29.88
2019-05-19T10:52:41.254Z,29.99
2019-05-19T10:53:41.230Z,30.10
2019-05-19T10:54:41.233Z,29.95
2019-05-19T10:55:41.206Z,29.84
2019-05-19T10:56:41.195Z,29.78
2019-05-19T10:57:41.186Z,29.84
2019-05-19T10:58:41.180Z,29.74
2019-05-19T10:59:41.166Z,29.64
2019-05-19T11:00:41.169Z,29.67
2019-05-19T11:01:41.150Z,29.76
2019-05-19T11:02:41.139Z,29.63
2019-05-19T11:03:41.134Z,29.54
2019-05-19T11:04:41.122Z,29.49
2019-05-19T11:05:41.121Z,29.26
2019-05-19T11:06:41.117Z,29.07
2019-05-19T11:07:41.096Z,28.98
2019-05-19T11:08:41.074Z,29.03
2019-05-19T11:09:41.071Z,29.02
2019-05-19T11:10:41.076Z,29.00
2019-05-19T11:11:41.055Z,29.07
2019-05-19T11:12:41.038Z,29.00
2019-05-19T11:13:41.030Z,29.07
2019-05-19T11:14:41.021Z,29.17
2019-05-19T11:15:41.028Z,29.20
2019-05-19T11:16:41.003Z,29.10
2019-05-19T11:17:40.992Z,29.18
2019-05-19T11:18:40.981Z,29.33
2019-05-19T11:19:40.973Z,29.42
2019-05-19T11:20:40.972Z,29.45
2019-05-19T11:21:40.963Z,29.48
2019-05-19T11:22:40.946Z,29.57
2019-05-19T11:23:40.974Z,29.73
2019-05-19T11:24:40.928Z,29.78
2019-05-19T11:25:51.223Z,29.89
2019-05-19T11:26:41.955Z,30.10
2019-05-19T11:27:40.896Z,30.04
2019-05-19T11:28:40.896Z,30.11
2019-05-19T11:29:40.883Z,30.23
2019-05-19T11:30:40.872Z,30.25
2019-05-19T11:31:40.877Z,30.28
2019-05-19T11:32:40.874Z,30.10
2019-05-19T11:33:40.845Z,30.08
2019-05-19T11:34:40.833Z,30.00
2019-05-19T11:35:40.828Z,29.97
2019-05-19T11:36:40.860Z,30.03
2019-05-19T11:37:40.806Z,30.01
2019-05-19T11:38:40.798Z,30.10
2019-05-19T11:39:40.790Z,30.08
2019-05-19T11:40:40.805Z,30.22
2019-05-19T11:41:40.771Z,30.25
2019-05-19T11:42:40.778Z,30.29
2019-05-19T11:43:40.767Z,30.25
2019-05-19T11:44:40.752Z,30.32
2019-05-19T11:45:40.732Z,30.36
2019-05-19T11:46:40.732Z,30.51
2019-05-19T11:47:40.765Z,30.53
2019-05-19T11:48:40.716Z,30.48
2019-05-19T11:49:40.702Z,30.30
2019-05-19T11:50:42.175Z,30.19
2019-05-19T11:51:40.677Z,29.95
2019-05-19T11:52:40.679Z,30.01
2019-05-19T11:53:40.679Z,29.88
2019-05-19T11:54:40.646Z,29.88
2019-05-19T11:55:40.663Z,29.76
2019-05-19T11:56:40.628Z,29.73
2019-05-19T11:57:40.625Z,29.76
2019-05-19T11:58:40.610Z,29.69
2019-05-19T11:59:40.619Z,29.76
2019-05-19T12:00:40.651Z,29.62
2019-05-19T12:01:40.578Z,29.48
2019-05-19T12:02:40.567Z,29.14
2019-05-19T12:03:40.561Z,28.89
2019-05-19T12:04:40.551Z,28.74
2019-05-19T12:05:40.554Z,28.62
2019-05-19T12:06:40.532Z,28.42
2019-05-19T12:07:40.532Z,28.40
2019-05-19T12:08:40.528Z,28.30
2019-05-19T12:09:40.501Z,28.18
2019-05-19T12:10:40.524Z,28.17
2019-05-19T12:11:40.516Z,28.01
2019-05-19T12:12:40.473Z,27.93
2019-05-19T12:13:40.466Z,27.88
2019-05-19T12:14:40.449Z,27.95
2019-05-19T12:15:40.436Z,27.98
2019-05-19T12:16:40.453Z,27.99
2019-05-19T12:17:40.414Z,27.96
2019-05-19T12:18:40.407Z,28.03
2019-05-19T12:19:40.400Z,27.93
2019-05-19T12:20:40.392Z,27.90
2019-05-19T12:21:40.382Z,27.58
2019-05-19T12:22:40.389Z,27.05
2019-05-19T12:23:40.357Z,26.66
2019-05-19T12:24:40.347Z,26.31
2019-05-19T12:25:40.344Z,26.11
2019-05-19T12:26:40.317Z,26.03
2019-05-19T12:27:40.309Z,25.89
2019-05-19T12:28:40.297Z,25.86
2019-05-19T12:29:40.291Z,25.66
2019-05-19T12:30:40.288Z,25.56
2019-05-19T12:31:40.273Z,25.51
2019-05-19T12:32:40.251Z,25.57
2019-05-19T12:33:51.509Z,25.54
2019-05-19T12:34:41.239Z,25.63
2019-05-19T12:35:40.230Z,25.59
2019-05-19T12:36:40.216Z,25.69
2019-05-19T12:37:40.197Z,25.64
2019-05-19T12:38:40.186Z,25.54
2019-05-19T12:39:40.210Z,25.48
2019-05-19T12:40:40.170Z,25.44
2019-05-19T12:41:40.165Z,25.46
2019-05-19T12:42:40.146Z,25.41
2019-05-19T12:43:40.134Z,25.24
2019-05-19T12:44:40.123Z,25.08
2019-05-19T12:45:40.126Z,25.24
2019-05-19T12:46:40.107Z,25.08
2019-05-19T12:47:40.088Z,25.19
2019-05-19T12:48:40.079Z,25.04
2019-05-19T12:49:40.074Z,24.98
2019-05-19T12:50:40.080Z,24.99
2019-05-19T12:51:40.046Z,25.01
2019-05-19T12:52:40.049Z,24.93